Time;durP1;ratioP1;P1;durP2;ratioP2;P2;SDS_P1;SDS_P2;PMS_P1;PMS_P2;Temp;Humidity;BMP_temperature;BMP_pressure;BME280_temperature;BME280_humidity;BME280_pressure;Samples;Min_cycle;Max_cycle;Signal;HPM_P1;HPM_P2
2022/06/04 00:00:49;;;;;;;5.23;4.73;;;;;;;12.69;77.70;102151.56;5048814;28;20218;-72
2022/06/04 00:03:16;;;;;;;6.50;5.83;;;;;;;12.67;78.04;102160.94;5048700;28;20181;-73
2022/06/04 00:05:44;;;;;;;7.17;5.23;;;;;;;12.64;77.94;102159.16;5048728;28;20668;-73
2022/06/04 00:08:10;;;;;;;8.37;5.10;;;;;;;12.63;77.94;102156.53;5048730;28;20248;-72
2022/06/04 00:16:12;;;;;;;6.73;5.63;;;;;;;12.55;78.59;102156.28;5040507;28;20655;-73
2022/06/04 00:18:39;;;;;;;5.73;4.97;;;;;;;12.57;79.02;102156.31;5029550;28;20222;-72
2022/06/04 00:21:06;;;;;;;6.80;5.73;;;;;;;12.52;79.27;102160.41;5024497;28;20214;-72
2022/06/04 00:23:31;;;;;;;5.77;5.23;;;;;;;12.49;79.60;102152.63;5028935;28;20187;-72
2022/06/04 00:25:59;;;;;;;6.90;5.17;;;;;;;12.47;79.52;102157.72;5028409;28;20678;-73
2022/06/04 00:28:26;;;;;;;8.07;5.97;;;;;;;12.42;79.70;102158.38;5010741;28;20207;-72
2022/06/04 00:30:53;;;;;;;6.57;4.80;;;;;;;12.41;79.99;102151.50;5029899;28;20186;-72
2022/06/04 00:33:19;;;;;;;6.50;5.00;;;;;;;12.38;80.11;102153.97;5032271;28;20187;-72
2022/06/04 00:35:48;;;;;;;5.67;5.07;;;;;;;12.35;80.27;102161.59;5032958;28;20264;-72
2022/06/04 00:38:15;;;;;;;5.30;4.77;;;;;;;12.28;80.64;102157.94;5014341;28;20786;-72
2022/06/04 00:41:02;;;;;;;7.17;6.20;;;;;;;12.28;80.66;102165.66;5032738;28;20217;-72
2022/06/04 00:43:28;;;;;;;9.17;6.27;;;;;;;12.27;80.68;102165.59;5032147;28;20184;-72
2022/06/04 00:46:15;;;;;;;7.43;6.27;;;;;;;12.17;81.11;102161.81;5014969;28;20175;-73
2022/06/04 00:48:40;;;;;;;7.33;5.70;;;;;;;12.15;81.24;102157.44;5031961;28;20202;-72
2022/06/04 00:51:06;;;;;;;7.23;6.40;;;;;;;12.14;81.74;102160.84;5032544;28;20179;-72
2022/06/04 00:53:34;;;;;;;9.07;6.53;;;;;;;12.09;82.36;102165.84;5014326;28;20197;-73
2022/06/04 00:56:14;;;;;;;8.60;6.27;;;;;;;12.10;82.48;102159.00;5032208;28;20635;-72
2022/06/04 00:59:01;;;;;;;7.13;6.33;;;;;;;12.07;82.71;102164.91;5031947;28;20206;-72
2022/06/04 01:01:50;;;;;;;7.60;6.70;;;;;;;11.97;82.55;102164.53;5031904;28;20226;-72
2022/06/04 01:04:48;;;;;;;9.27;7.03;;;;;;;11.94;83.05;102155.03;5032286;28;20559;-72
2022/06/04 01:07:34;;;;;;;8.47;7.07;;;;;;;11.88;83.32;102162.53;5031872;28;20174;-72
2022/06/04 01:10:30;;;;;;;9.63;7.30;;;;;;;11.89;83.30;102159.13;5032053;28;20240;-73
2022/06/04 01:13:08;;;;;;;8.50;7.40;;;;;;;11.83;83.50;102166.63;5031930;28;20213;-72
2022/06/04 01:15:51;;;;;;;8.77;7.87;;;;;;;11.82;83.87;102169.13;5022130;28;20200;-73
2022/06/04 01:18:37;;;;;;;9.70;7.77;;;;;;;11.80;84.03;102168.22;5030292;28;20225;-72
2022/06/04 01:21:21;;;;;;;9.43;7.83;;;;;;;11.80;84.32;102165.66;5031399;28;20656;-72
2022/06/04 01:24:09;;;;;;;8.63;7.73;;;;;;;11.70;84.40;102161.88;5031686;28;20178;-72
2022/06/04 01:27:00;;;;;;;11.97;8.43;;;;;;;11.70;84.50;102158.44;5030284;28;20272;-72
2022/06/04 01:29:34;;;;;;;10.37;8.00;;;;;;;11.58;84.98;102163.09;5031363;28;20205;-72
2022/06/04 01:32:11;;;;;;;9.57;8.23;;;;;;;11.60;85.12;102157.22;5031658;28;20189;-72
2022/06/04 01:35:05;;;;;;;8.73;7.70;;;;;;;11.50;85.51;102154.22;5031375;28;20223;-72
2022/06/04 01:37:38;;;;;;;11.00;8.73;;;;;;;11.52;85.30;102158.59;5029971;28;20248;-73
2022/06/04 01:42:55;;;;;;;11.30;8.00;;;;;;;11.50;85.84;102160.25;5030365;28;20175;-72
2022/06/04 01:45:24;;;;;;;9.03;7.90;;;;;;;11.47;86.25;102161.84;5031093;28;20191;-73
2022/06/04 01:47:52;;;;;;;10.53;8.57;;;;;;;11.45;86.55;102158.31;5029991;28;20202;-72
2022/06/04 01:50:21;;;;;;;11.63;8.70;;;;;;;11.36;86.65;102156.31;5030996;28;20183;-72
2022/06/04 01:52:48;;;;;;;10.37;7.67;;;;;;;11.34;86.21;102159.63;5030263;28;20603;-72
2022/06/04 01:55:22;;;;;;;8.80;7.10;;;;;;;11.34;86.43;102157.91;5031016;28;20611;-73
2022/06/04 01:58:01;;;;;;;12.40;9.10;;;;;;;11.32;86.77;102157.00;5031183;28;20211;-73
2022/06/04 02:00:32;;;;;;;10.00;8.77;;;;;;;11.36;86.93;102163.09;5030802;28;20241;-73
2022/06/04 02:03:04;;;;;;;10.83;9.23;;;;;;;11.35;86.99;102161.38;5033354;28;20590;-72
2022/06/04 02:05:44;;;;;;;11.93;9.53;;;;;;;11.29;87.52;102154.31;5040814;28;20201;-72
2022/06/04 02:08:14;;;;;;;12.30;9.50;;;;;;;11.25;87.27;102162.69;5030204;28;20259;-72
2022/06/04 02:10:48;;;;;;;10.83;9.17;;;;;;;11.21;87.10;102165.09;5030800;28;20178;-72
2022/06/04 02:13:15;;;;;;;15.87;9.00;;;;;;;11.19;87.40;102149.66;5012875;28;20892;-72
2022/06/04 02:15:49;;;;;;;10.33;8.70;;;;;;;11.22;87.95;102149.78;5013277;28;20214;-72
2022/06/04 02:18:15;;;;;;;12.07;8.67;;;;;;;11.17;87.96;102150.41;5030238;28;20225;-72
2022/06/04 02:20:41;;;;;;;10.93;8.63;;;;;;;11.06;88.47;102144.03;5030635;28;20237;-73
2022/06/04 02:23:06;;;;;;;8.77;7.87;;;;;;;11.10;88.21;102138.19;5030352;28;20186;-72
2022/06/04 02:25:32;;;;;;;11.73;8.70;;;;;;;11.09;87.78;102133.88;5030619;28;20206;-72
2022/06/04 02:27:58;;;;;;;11.33;8.50;;;;;;;11.07;88.27;102138.94;5012569;28;20764;-72
2022/06/04 02:30:43;;;;;;;11.87;9.40;;;;;;;11.12;88.58;102139.13;5017419;28;20218;-73
2022/06/04 02:33:13;;;;;;;12.90;9.57;;;;;;;11.10;89.34;102133.06;5020084;28;20706;-72
2022/06/04 02:36:24;;;;;;;11.80;9.63;;;;;;;11.10;89.63;102135.63;5028770;28;20229;-72
2022/06/04 02:39:18;;;;;;;11.63;9.37;;;;;;;11.11;90.15;102134.81;4982128;28;20222;-72
2022/06/04 02:42:06;;;;;;;10.73;9.63;;;;;;;11.11;89.97;102140.78;5014393;28;20288;-72
2022/06/04 02:44:47;;;;;;;11.40;9.90;;;;;;;11.09;90.16;102145.00;5029032;28;20197;-72
2022/06/04 02:47:17;;;;;;;15.37;10.03;;;;;;;11.12;90.36;102139.13;5029762;28;20190;-72
2022/06/04 02:50:02;;;;;;;16.03;10.17;;;;;;;11.15;90.44;102144.38;5030664;28;20173;-73
2022/06/04 02:52:31;;;;;;;14.50;9.97;;;;;;;11.10;90.48;102133.94;5029730;28;20533;-72
2022/06/04 02:55:12;;;;;;;13.43;10.63;;;;;;;11.07;90.96;102143.19;5029778;28;20198;-72
2022/06/04 02:57:41;;;;;;;13.43;10.07;;;;;;;11.08;90.97;102143.25;5029431;28;20718;-73
2022/06/04 03:00:09;;;;;;;14.73;9.83;;;;;;;11.09;91.05;102155.25;5029911;28;20221;-72
2022/06/04 03:02:35;;;;;;;17.00;11.10;;;;;;;11.10;91.41;102153.59;5029635;28;20197;-72
2022/06/04 03:05:16;;;;;;;15.43;11.23;;;;;;;11.12;91.33;102155.38;5029942;28;20190;-72
2022/06/04 03:07:45;;;;;;;14.73;10.70;;;;;;;11.11;91.14;102155.31;5029328;28;20206;-73
2022/06/04 03:10:21;;;;;;;15.47;10.97;;;;;;;11.09;91.06;102159.50;5028574;28;20187;-72
2022/06/04 03:12:47;;;;;;;11.93;10.30;;;;;;;11.09;91.03;102162.06;5028853;28;20193;-72
2022/06/04 03:15:13;;;;;;;13.43;10.37;;;;;;;11.08;91.42;102163.78;5029607;28;20256;-72
2022/06/04 03:17:40;;;;;;;14.83;10.80;;;;;;;11.10;91.61;102174.09;5029641;28;20353;-73
2022/06/04 03:20:07;;;;;;;14.23;11.27;;;;;;;11.07;91.40;102169.69;5029357;28;20656;-72
2022/06/04 03:22:33;;;;;;;14.77;10.47;;;;;;;11.03;91.49;102175.53;5029716;28;20194;-72
2022/06/04 03:24:59;;;;;;;15.57;11.50;;;;;;;11.03;91.46;102179.78;5030944;28;20255;-73
2022/06/04 03:27:24;;;;;;;16.70;11.73;;;;;;;11.02;91.15;102180.59;5046653;28;20181;-73
2022/06/04 03:29:50;;;;;;;13.87;10.90;;;;;;;11.04;90.73;102190.09;5031486;28;20315;-73
2022/06/04 03:32:15;;;;;;;15.90;11.53;;;;;;;11.03;90.78;102185.78;4995773;28;20190;-73
2022/06/04 03:34:41;;;;;;;14.07;9.90;;;;;;;10.98;89.99;102182.19;5012454;28;20179;-73
2022/06/04 03:37:06;;;;;;;14.50;10.50;;;;;;;10.98;89.89;102189.88;5029237;28;20189;-73
2022/06/04 03:39:32;;;;;;;14.17;10.87;;;;;;;11.01;90.61;102187.41;5011961;28;20635;-73
2022/06/04 03:41:58;;;;;;;12.03;9.93;;;;;;;10.99;90.30;102194.16;5029312;28;20218;-73
2022/06/04 03:44:24;;;;;;;14.10;10.27;;;;;;;10.97;90.31;102195.78;5029300;28;20187;-73
2022/06/04 03:46:49;;;;;;;18.37;11.03;;;;;;;11.01;90.37;102200.22;5029061;28;20328;-73
2022/06/04 03:49:15;;;;;;;15.33;11.90;;;;;;;11.06;91.46;102200.41;5029616;28;20679;-73
2022/06/04 03:51:41;;;;;;;15.63;11.47;;;;;;;11.11;91.27;102201.47;5015945;28;20565;-72
2022/06/04 03:54:06;;;;;;;15.23;11.90;;;;;;;11.12;91.63;102201.53;5034897;28;20197;-73
2022/06/04 03:56:32;;;;;;;15.00;11.73;;;;;;;11.14;91.64;102212.69;5029708;28;20179;-73
2022/06/04 03:58:58;;;;;;;15.63;10.70;;;;;;;11.14;91.78;102209.25;5028883;28;20217;-72
2022/06/04 04:01:26;;;;;;;15.27;11.83;;;;;;;11.18;92.01;102217.13;5029474;28;20222;-72
2022/06/04 04:03:53;;;;;;;18.33;12.60;;;;;;;11.23;92.17;102213.06;5011295;28;20291;-73
2022/06/04 04:06:28;;;;;;;17.47;12.37;;;;;;;11.28;92.10;102215.78;5028891;28;20186;-72
2022/06/04 04:08:54;;;;;;;13.97;10.90;;;;;;;11.31;92.03;102211.69;5028513;28;20229;-72
2022/06/04 04:11:22;;;;;;;17.20;12.80;;;;;;;11.38;91.69;102220.47;5029462;28;20757;-72
2022/06/04 04:13:51;;;;;;;17.50;11.90;;;;;;;11.41;91.95;102218.91;5029614;28;20221;-72
2022/06/04 04:16:17;;;;;;;15.90;11.97;;;;;;;11.47;92.48;102205.44;5028960;28;20252;-72
2022/06/04 04:18:42;;;;;;;17.27;13.00;;;;;;;11.51;92.25;102210.72;5029143;28;20214;-72
2022/06/04 04:21:11;;;;;;;18.90;13.00;;;;;;;11.55;92.54;102209.13;5028733;28;20221;-72
2022/06/04 04:23:37;;;;;;;15.90;12.43;;;;;;;11.62;92.17;102200.91;5029304;28;20190;-72
2022/06/04 04:26:06;;;;;;;18.33;13.07;;;;;;;11.65;91.75;102204.44;5028642;28;20182;-72
2022/06/04 04:28:32;;;;;;;16.83;12.27;;;;;;;11.71;92.08;102201.25;5011329;28;20207;-72
2022/06/04 04:30:57;;;;;;;16.33;12.53;;;;;;;11.77;92.07;102188.63;5011520;28;20198;-72
2022/06/04 04:33:23;;;;;;;14.80;13.07;;;;;;;11.81;92.08;102185.34;5011319;28;20281;-72
2022/06/04 04:35:49;;;;;;;18.93;13.13;;;;;;;11.87;91.48;102172.72;5029218;28;20308;-71
2022/06/04 04:38:18;;;;;;;17.37;13.03;;;;;;;11.92;91.58;102166.94;5028560;28;20277;-72
2022/06/04 04:40:45;;;;;;;18.33;13.37;;;;;;;11.99;91.44;102168.88;5028660;28;20214;-72
2022/06/04 04:43:11;;;;;;;16.87;12.83;;;;;;;12.06;91.58;102163.16;5022311;28;20200;-73
2022/06/04 04:45:37;;;;;;;22.67;14.27;;;;;;;12.13;91.65;102169.38;5029103;28;20197;-73
2022/06/04 04:48:03;;;;;;;18.97;14.50;;;;;;;12.20;91.52;102167.06;5027744;28;20211;-72
2022/06/04 04:50:33;;;;;;;20.37;14.07;;;;;;;12.33;91.33;102174.38;5027759;28;20185;-72
2022/06/04 04:53:02;;;;;;;17.60;13.13;;;;;;;12.44;90.49;102165.31;5026709;28;20193;-72
2022/06/04 04:55:28;;;;;;;18.83;14.30;;;;;;;12.53;91.31;102167.34;5008792;28;20195;-72
2022/06/04 04:57:53;;;;;;;23.03;14.80;;;;;;;12.66;90.73;102162.63;5027458;28;20234;-72
2022/06/04 05:00:19;;;;;;;21.07;13.90;;;;;;;12.78;90.80;102162.16;5028277;28;20269;-71
2022/06/04 05:02:45;;;;;;;19.17;14.27;;;;;;;12.89;90.62;102155.63;5028905;28;20277;-72
2022/06/04 05:05:12;;;;;;;20.47;13.47;;;;;;;13.01;90.34;102163.75;5010428;28;20252;-72
2022/06/04 05:07:38;;;;;;;19.57;14.47;;;;;;;13.11;89.84;102160.63;5028499;28;20198;-72
2022/06/04 05:10:05;;;;;;;19.83;14.53;;;;;;;13.25;88.87;102166.22;5028980;28;20582;-72
2022/06/04 05:12:30;;;;;;;20.77;14.20;;;;;;;13.37;88.80;102162.28;5028449;28;20571;-72
2022/06/04 05:14:56;;;;;;;22.00;14.23;;;;;;;13.51;88.29;102160.09;5028693;28;20186;-72
2022/06/04 05:17:21;;;;;;;18.50;12.67;;;;;;;13.65;87.93;102161.38;5012152;28;20718;-72
2022/06/04 05:19:47;;;;;;;19.63;13.07;;;;;;;13.78;86.99;102161.78;5014792;28;20190;-72
2022/06/04 05:22:12;;;;;;;19.00;13.10;;;;;;;13.91;86.66;102156.09;5031905;28;20347;-72
2022/06/04 05:24:38;;;;;;;20.23;12.90;;;;;;;14.09;86.10;102156.59;5032420;28;20187;-72
2022/06/04 05:27:05;;;;;;;17.27;13.53;;;;;;;14.04;85.99;102165.03;5031603;28;20934;-72
2022/06/04 05:29:33;;;;;;;20.00;13.33;;;;;;;14.24;84.97;102161.31;5031797;28;20218;-72
2022/06/04 05:31:59;;;;;;;17.97;11.80;;;;;;;14.29;84.59;102157.13;5032053;28;20190;-72
2022/06/04 05:34:25;;;;;;;18.10;12.17;;;;;;;14.32;84.63;102164.97;5031521;28;20193;-72
2022/06/04 05:36:53;;;;;;;15.13;12.03;;;;;;;14.52;83.84;102162.03;5031703;28;20194;-72
2022/06/04 05:39:19;;;;;;;14.70;11.60;;;;;;;14.72;82.65;102172.81;5031523;28;20315;-72
2022/06/04 05:41:45;;;;;;;18.67;12.40;;;;;;;14.80;81.98;102166.13;5031995;28;20214;-72
2022/06/04 05:44:11;;;;;;;16.83;11.47;;;;;;;14.77;82.17;102164.38;5031457;28;20236;-72
2022/06/04 05:46:40;;;;;;;16.57;10.63;;;;;;;14.88;81.15;102168.06;5031663;28;20198;-72
2022/06/04 05:49:05;;;;;;;14.73;11.47;;;;;;;15.04;80.54;102177.91;5031198;28;20288;-72
2022/06/04 05:51:30;;;;;;;16.67;11.70;;;;;;;15.25;79.62;102175.81;5030945;28;20210;-71
2022/06/04 05:53:57;;;;;;;16.83;11.20;;;;;;;15.22;79.35;102178.31;5013245;28;20317;-73
2022/06/04 05:56:32;;;;;;;17.00;11.40;;;;;;;15.07;79.45;102184.84;5013328;28;20197;-72
2022/06/04 05:58:59;;;;;;;14.73;10.57;;;;;;;15.02;79.42;102184.75;5012081;28;20643;-72
2022/06/04 06:01:27;;;;;;;17.37;11.03;;;;;;;15.07;79.44;102188.31;5029286;28;20263;-72
2022/06/04 06:03:53;;;;;;;15.47;11.00;;;;;;;15.26;78.18;102193.03;5031424;28;20225;-72
2022/06/04 06:06:26;;;;;;;15.67;11.13;;;;;;;15.40;77.42;102191.66;5030599;28;20687;-72
2022/06/04 06:08:52;;;;;;;13.77;10.57;;;;;;;15.42;77.15;102202.03;5013547;28;20267;-72
2022/06/04 06:11:19;;;;;;;13.67;11.37;;;;;;;15.69;76.65;102203.44;5031490;28;20344;-72
2022/06/04 06:13:46;;;;;;;15.90;10.70;;;;;;;15.77;76.72;102198.44;5030751;28;20193;-72
2022/06/04 06:16:24;;;;;;;13.77;10.73;;;;;;;15.74;75.97;102193.22;5031319;28;20195;-72
2022/06/04 06:18:50;;;;;;;15.00;10.73;;;;;;;15.89;76.01;102194.38;5029473;28;20214;-72
2022/06/04 06:21:22;;;;;;;12.90;9.60;;;;;;;16.19;75.10;102200.13;5030866;28;20276;-72
2022/06/04 06:23:48;;;;;;;17.10;10.70;;;;;;;16.28;75.02;102191.66;5030671;28;20174;-72
2022/06/04 06:26:23;;;;;;;13.07;10.20;;;;;;;16.54;74.45;102203.38;5030462;28;20683;-73
2022/06/04 06:28:49;;;;;;;13.63;9.10;;;;;;;16.82;73.14;102206.47;5011165;28;20640;-72
2022/06/04 06:31:19;;;;;;;13.03;9.67;;;;;;;16.74;71.91;102204.56;5031018;28;20648;-73
2022/06/04 06:33:45;;;;;;;15.07;10.37;;;;;;;16.84;72.36;102201.28;5029501;28;20202;-72
2022/06/04 06:36:13;;;;;;;12.67;9.70;;;;;;;16.77;71.94;102199.47;5030374;28;20269;-72
2022/06/04 06:38:39;;;;;;;12.53;9.70;;;;;;;17.00;71.51;102198.94;5030237;28;20210;-72
2022/06/04 06:41:06;;;;;;;13.13;9.37;;;;;;;17.34;70.35;102195.13;5030419;28;20221;-72
2022/06/04 06:43:47;;;;;;;10.33;9.10;;;;;;;17.39;69.38;102202.16;5030965;28;20190;-72
2022/06/04 06:46:25;;;;;;;12.33;9.40;;;;;;;17.56;69.47;102205.84;5030671;28;20223;-72
2022/06/04 06:48:55;;;;;;;14.10;9.93;;;;;;;17.61;69.33;102199.00;5030043;28;20574;-72
2022/06/04 06:51:33;;;;;;;11.20;9.33;;;;;;;17.70;68.97;102196.53;5030248;28;20670;-72
2022/06/04 06:53:59;;;;;;;14.63;9.80;;;;;;;17.64;69.15;102196.41;5029907;28;20182;-72
2022/06/04 06:56:28;;;;;;;14.20;9.77;;;;;;;17.72;69.55;102206.88;5010933;28;20187;-72
2022/06/04 06:58:54;;;;;;;12.10;9.60;;;;;;;17.78;69.52;102215.59;5010494;28;20210;-73
2022/06/04 07:01:21;;;;;;;17.27;10.53;;;;;;;18.03;67.98;102224.53;5029480;28;20622;-72
2022/06/04 07:03:48;;;;;;;11.87;9.70;;;;;;;18.00;67.85;102227.97;5029869;28;20190;-72
2022/06/04 07:06:14;;;;;;;12.57;10.10;;;;;;;17.96;69.08;102222.75;5029771;28;20608;-72
2022/06/04 07:08:42;;;;;;;13.17;10.37;;;;;;;17.79;67.38;102219.94;5011674;28;20214;-72
2022/06/04 07:11:10;;;;;;;13.80;9.40;;;;;;;17.97;68.15;102217.53;5029855;28;20189;-72
2022/06/04 07:13:35;;;;;;;12.00;9.53;;;;;;;18.21;66.37;102224.75;5029397;28;20194;-72
2022/06/04 07:16:00;;;;;;;12.20;8.90;;;;;;;18.33;66.52;102230.94;5029463;28;20248;-72
2022/06/04 07:18:26;;;;;;;10.73;8.37;;;;;;;18.76;64.58;102235.69;5011488;28;20214;-73
2022/06/04 07:20:51;;;;;;;10.73;9.37;;;;;;;18.89;66.54;102234.91;5028721;28;20580;-72
2022/06/04 07:23:18;;;;;;;14.07;8.37;;;;;;;19.10;64.76;102236.81;5029961;28;20209;-72
2022/06/04 07:25:45;;;;;;;15.63;8.80;;;;;;;19.40;63.87;102229.25;5029412;28;20262;-73
2022/06/04 07:28:13;;;;;;;10.43;7.77;;;;;;;19.39;62.69;102232.72;5029320;28;20691;-73
2022/06/04 07:30:39;;;;;;;11.27;8.77;;;;;;;19.04;63.39;102239.38;5029064;28;20223;-72
2022/06/04 07:33:05;;;;;;;11.60;8.23;;;;;;;18.99;63.75;102241.06;5029524;28;20593;-72
2022/06/04 07:35:30;;;;;;;11.97;8.37;;;;;;;18.90;64.42;102244.47;5029370;28;20194;-73
2022/06/04 07:37:55;;;;;;;11.93;8.03;;;;;;;18.84;63.86;102246.16;5029125;28;20229;-72
2022/06/04 07:40:21;;;;;;;13.33;9.03;;;;;;;19.17;63.39;102247.25;5010914;28;20190;-72
2022/06/04 07:42:47;;;;;;;11.60;8.00;;;;;;;19.10;63.40;102247.19;5029344;28;20182;-72
2022/06/04 07:45:13;;;;;;;9.87;7.87;;;;;;;19.41;63.39;102251.78;5029653;28;20233;-72
2022/06/04 07:47:41;;;;;;;12.87;8.13;;;;;;;19.36;62.84;102250.88;5028619;28;20190;-72
2022/06/04 07:50:08;;;;;;;9.57;7.57;;;;;;;19.32;62.76;102246.53;5011452;28;20186;-72
2022/06/04 07:52:34;;;;;;;9.77;7.10;;;;;;;19.28;63.69;102255.16;5011302;28;20178;-72
2022/06/04 07:55:00;;;;;;;12.27;7.80;;;;;;;19.34;63.05;102250.00;5012178;28;20588;-72
2022/06/04 07:57:26;;;;;;;10.73;7.47;;;;;;;19.40;62.67;102250.88;5029139;28;20193;-72
2022/06/04 07:59:52;;;;;;;8.20;7.40;;;;;;;19.50;61.84;102254.44;5028718;28;20204;-72
2022/06/04 08:02:17;;;;;;;8.40;7.00;;;;;;;19.49;63.16;102257.88;5011641;28;20308;-72
2022/06/04 08:04:43;;;;;;;10.70;6.97;;;;;;;19.27;63.48;102254.28;5011160;28;20243;-73
2022/06/04 08:07:08;;;;;;;9.80;6.80;;;;;;;19.25;63.40;102262.94;5028137;28;20186;-72
2022/06/04 08:09:34;;;;;;;10.77;7.73;;;;;;;19.28;62.21;102269.03;5028438;28;20636;-72
2022/06/04 08:12:00;;;;;;;9.87;7.80;;;;;;;19.31;63.36;102270.75;5011178;28;20185;-72
2022/06/04 08:14:26;;;;;;;7.90;6.73;;;;;;;19.37;62.99;102270.78;5029559;28;20179;-73
2022/06/04 08:16:58;;;;;;;9.93;7.13;;;;;;;19.58;63.06;102269.19;5029138;28;20242;-72
2022/06/04 08:19:26;;;;;;;14.27;6.70;;;;;;;20.28;60.37;102266.06;5029181;28;20202;-73
2022/06/04 08:21:52;;;;;;;8.50;7.10;;;;;;;20.35;61.18;102267.81;5011216;28;20596;-72
2022/06/04 08:24:18;;;;;;;9.13;6.60;;;;;;;20.53;58.70;102267.84;5028383;28;20648;-72
2022/06/04 08:26:47;;;;;;;10.27;7.47;;;;;;;20.76;58.16;102267.84;5028750;28;20191;-72
2022/06/04 08:29:13;;;;;;;12.43;7.60;;;;;;;20.96;56.41;102266.19;5028458;28;20206;-72
2022/06/04 08:31:39;;;;;;;9.50;7.40;;;;;;;21.05;54.98;102263.56;5028579;28;20221;-72
2022/06/04 08:34:05;;;;;;;10.90;6.97;;;;;;;20.85;58.04;102263.53;5029086;28;20213;-73
2022/06/04 08:36:31;;;;;;;9.63;6.17;;;;;;;21.16;54.34;102267.03;5028295;28;20198;-72
2022/06/04 08:38:57;;;;;;;8.33;6.43;;;;;;;21.24;54.99;102270.50;5027855;28;20210;-72
2022/06/04 08:41:59;;;;;;;7.93;6.90;;;;;;;21.29;53.48;102268.75;5029061;28;20263;-72
2022/06/04 08:44:33;;;;;;;12.10;7.00;;;;;;;21.59;54.53;102259.13;5008984;28;20213;-72
2022/06/04 08:47:25;;;;;;;9.83;7.23;;;;;;;21.72;54.45;102257.38;5009258;28;20191;-72
2022/06/04 08:50:03;;;;;;;8.53;6.57;;;;;;;21.61;55.46;102256.50;4999469;28;20253;-72
2022/06/04 08:52:40;;;;;;;7.73;6.07;;;;;;;22.08;52.52;102259.81;5011271;28;20278;-72
2022/06/04 08:58:16;;;;;;;9.30;5.43;;;;;;;22.30;49.36;102256.22;5012445;28;20246;-72
2022/06/04 09:00:52;;;;;;;8.40;6.53;;;;;;;22.42;52.69;102266.59;5011441;28;20704;-72
2022/06/04 09:03:39;;;;;;;6.67;5.70;;;;;;;22.64;51.02;102256.91;4995124;28;20554;-73
2022/06/04 09:06:17;;;;;;;7.07;5.57;;;;;;;22.49;51.01;102254.38;5012435;28;20186;-73
2022/06/04 09:08:52;;;;;;;6.57;5.50;;;;;;;22.68;52.14;102263.81;5012160;28;20199;-73
2022/06/04 09:11:28;;;;;;;5.80;4.70;;;;;;;22.80;49.74;102262.00;5012281;28;20704;-73
2022/06/04 09:14:20;;;;;;;6.63;3.70;;;;;;;22.93;46.79;102254.94;5012720;28;20237;-73
2022/06/04 09:16:57;;;;;;;7.37;3.67;;;;;;;22.98;46.29;102248.75;5021217;28;20697;-72
2022/06/04 09:19:30;;;;;;;4.77;3.90;;;;;;;23.11;47.92;102252.16;5014178;28;20210;-73
2022/06/04 09:21:57;;;;;;;4.73;3.80;;;;;;;23.16;45.65;102248.59;5031804;28;20310;-72
2022/06/04 09:24:25;;;;;;;6.03;3.67;;;;;;;23.52;45.89;102247.41;5032540;28;20182;-72
2022/06/04 09:26:59;;;;;;;6.10;4.57;;;;;;;23.42;47.05;102238.78;5032181;28;20193;-73
2022/06/04 09:29:33;;;;;;;5.20;4.17;;;;;;;23.56;47.32;102244.72;5031196;28;20214;-72
2022/06/04 09:32:21;;;;;;;4.93;3.70;;;;;;;23.99;44.66;102247.72;5041253;28;20666;-73
2022/06/04 09:34:51;;;;;;;4.47;3.95;;;;;;;23.90;44.90;102240.84;5031364;28;20241;-73
2022/06/04 09:37:18;;;;;;;5.10;3.88;;;;;;;24.09;43.96;102247.59;5012747;28;20635;-72
2022/06/04 09:40:02;;;;;;;4.63;3.95;;;;;;;23.95;44.29;102249.53;5012553;28;20579;-72
2022/06/04 09:42:30;;;;;;;4.27;3.20;;;;;;;24.03;45.65;102252.03;5029796;28;20218;-73
2022/06/04 09:45:04;;;;;;;3.77;3.10;;;;;;;24.26;42.28;102258.69;5030689;28;20187;-73
2022/06/04 09:47:43;;;;;;;5.77;3.50;;;;;;;24.38;44.46;102252.41;5030334;28;20250;-73
2022/06/04 09:50:24;;;;;;;5.97;3.17;;;;;;;24.77;41.24;102250.06;5030298;28;20201;-73
2022/06/04 09:53:11;;;;;;;5.13;3.42;;;;;;;24.54;43.15;102254.75;5031098;28;20193;-73
2022/06/04 09:55:44;;;;;;;5.37;3.80;;;;;;;24.22;42.94;102259.59;5030496;28;20185;-72
2022/06/04 09:58:40;;;;;;;5.43;3.97;;;;;;;24.50;42.05;102250.44;5012431;28;20210;-72
2022/06/04 10:01:14;;;;;;;5.72;4.10;;;;;;;24.68;44.76;102257.22;5028515;28;20226;-73
2022/06/04 10:03:41;;;;;;;4.47;3.70;;;;;;;24.99;43.98;102255.81;5029823;28;20236;-73
2022/06/04 10:06:12;;;;;;;6.25;4.20;;;;;;;24.28;43.70;102256.91;5030742;28;20178;-72
2022/06/04 10:11:37;;;;;;;4.63;4.20;;;;;;;25.11;42.78;102252.97;5029348;28;20179;-72
2022/06/04 10:14:03;;;;;;;5.57;4.55;;;;;;;24.95;42.43;102262.88;5012772;28;20336;-72
2022/06/04 10:16:41;;;;;;;6.13;4.50;;;;;;;24.52;42.38;102264.41;5012677;28;20734;-72
2022/06/04 10:19:14;;;;;;;4.10;3.75;;;;;;;24.66;43.04;102259.88;5029707;28;21049;-73
2022/06/04 10:21:42;;;;;;;5.55;4.00;;;;;;;24.63;43.27;102256.44;5032212;28;20297;-73
2022/06/04 10:24:21;;;;;;;5.82;3.97;;;;;;;24.39;42.87;102260.25;5041790;28;20587;-72
2022/06/04 10:27:08;;;;;;;3.75;3.42;;;;;;;24.81;43.26;102240.41;5050294;28;20186;-73
2022/06/04 10:29:45;;;;;;;5.75;3.67;;;;;;;25.41;44.22;102234.94;5030705;28;20213;-72
2022/06/04 10:32:22;;;;;;;6.55;4.13;;;;;;;25.45;43.17;102247.13;5050183;28;20201;-73
2022/06/04 10:35:14;;;;;;;6.32;3.88;;;;;;;25.42;42.37;102246.31;5049930;28;20189;-73
2022/06/04 10:37:51;;;;;;;6.43;4.30;;;;;;;25.39;43.02;102246.38;5050127;28;20186;-72
2022/06/04 10:40:16;;;;;;;4.07;3.67;;;;;;;25.40;42.54;102248.97;5049782;28;20195;-73
2022/06/04 10:42:51;;;;;;;4.13;3.70;;;;;;;25.63;41.27;102238.88;5049568;28;20285;-73
2022/06/04 10:45:54;;;;;;;5.15;4.00;;;;;;;25.76;42.41;102236.88;5048913;28;20232;-72
2022/06/04 10:48:41;;;;;;;5.95;3.80;;;;;;;25.71;41.15;102231.72;5001919;28;20236;-72
2022/06/04 10:51:37;;;;;;;5.10;3.53;;;;;;;25.54;40.50;102238.19;5029245;28;20190;-73
2022/06/04 10:54:23;;;;;;;4.18;3.00;;;;;;;26.02;40.63;102239.84;5012307;28;20648;-73
2022/06/04 10:56:53;;;;;;;3.63;3.10;;;;;;;25.52;38.79;102238.25;5031825;28;20737;-73
2022/06/04 10:59:26;;;;;;;4.90;3.28;;;;;;;25.56;42.21;102245.13;5045485;28;20905;-73
2022/06/04 11:02:20;;;;;;;4.68;3.50;;;;;;;25.54;42.17;102251.31;5029631;28;20245;-72
2022/06/04 11:04:52;;;;;;;3.75;3.13;;;;;;;25.68;39.19;102247.53;5029481;28;20241;-72
2022/06/04 11:07:23;;;;;;;3.15;2.80;;;;;;;25.98;41.94;102243.44;5029643;28;20171;-72
2022/06/04 11:09:51;;;;;;;3.63;2.92;;;;;;;26.05;41.23;102237.13;5027495;28;20219;-73
2022/06/04 11:12:29;;;;;;;5.05;3.08;;;;;;;25.83;40.39;102247.22;5029628;28;20186;-73
2022/06/04 11:15:10;;;;;;;5.00;3.28;;;;;;;25.77;40.38;102259.59;5028833;28;20190;-73
2022/06/04 11:17:51;;;;;;;4.68;3.40;;;;;;;25.91;40.73;102253.16;5029172;28;20531;-72
2022/06/04 11:20:24;;;;;;;3.72;3.40;;;;;;;26.28;40.06;102254.13;5028909;28;20166;-73
2022/06/04 11:23:28;;;;;;;4.75;3.33;;;;;;;26.34;40.99;102253.97;5029611;28;20675;-72
2022/06/04 11:26:02;;;;;;;3.78;3.47;;;;;;;26.15;39.13;102244.78;5028998;28;20189;-72
2022/06/04 11:28:28;;;;;;;4.90;3.50;;;;;;;26.23;40.31;102244.63;5028470;28;20202;-73
2022/06/04 11:31:08;;;;;;;4.47;3.17;;;;;;;26.54;40.75;102243.00;5028553;28;20274;-73
2022/06/04 11:34:12;;;;;;;4.85;3.10;;;;;;;26.42;40.18;102248.53;5029175;28;20206;-73
2022/06/04 11:36:40;;;;;;;4.25;2.80;;;;;;;26.61;37.44;102242.84;5010989;28;20190;-73
2022/06/04 11:39:20;;;;;;;4.15;3.08;;;;;;;26.47;38.63;102239.66;5028301;28;20691;-73
2022/06/04 11:42:12;;;;;;;3.85;2.85;;;;;;;26.36;38.72;102236.44;5027832;28;20228;-73
2022/06/04 11:44:43;;;;;;;3.85;3.30;;;;;;;26.49;39.43;102239.63;5029107;28;20181;-73
2022/06/04 11:47:15;;;;;;;3.60;3.22;;;;;;;26.35;39.22;102242.59;5010877;28;20198;-73
2022/06/04 11:50:06;;;;;;;4.45;3.05;;;;;;;26.56;38.50;102241.19;5028276;28;20206;-72
2022/06/04 11:52:37;;;;;;;3.25;2.53;;;;;;;26.33;39.82;102238.28;5036219;28;20752;-72
2022/06/04 11:55:17;;;;;;;5.00;2.95;;;;;;;26.12;36.91;102229.13;5040161;28;20226;-72